Time;durP1;ratioP1;P1;durP2;ratioP2;P2;SDS_P1;SDS_P2;PMS_P1;PMS_P2;Temp;Humidity;BMP_temperature;BMP_pressure;BME280_temperature;BME280_humidity;BME280_pressure;Samples;Min_cycle;Max_cycle;Signal;HPM_P1;HPM_P2
2022/05/03 00:00:50;;;;;;;3.38;2.50;;;;;;;18.44;37.20;100968.84;5040335;28;20477;-67
2022/05/03 00:03:24;;;;;;;4.20;2.53;;;;;;;18.47;37.24;100967.59;5043103;28;20430;-67
2022/05/03 00:06:02;;;;;;;3.78;2.38;;;;;;;18.45;37.33;100973.16;5043461;28;20513;-67
2022/05/03 00:08:34;;;;;;;3.43;2.23;;;;;;;18.25;37.03;100977.84;5039656;28;20507;-66
2022/05/03 00:11:14;;;;;;;5.07;2.55;;;;;;;18.13;37.80;100972.31;5044139;28;20994;-65
2022/05/03 00:13:45;;;;;;;3.30;2.40;;;;;;;18.26;37.69;100963.41;5044232;28;20410;-65
2022/05/03 00:16:14;;;;;;;4.18;2.88;;;;;;;18.32;37.46;100976.75;5044699;28;20430;-66
2022/05/03 00:18:42;;;;;;;5.28;2.72;;;;;;;18.30;37.44;100972.66;5044392;28;20418;-66
2022/05/03 00:21:12;;;;;;;5.28;2.38;;;;;;;18.22;37.66;100968.38;5044516;28;20418;-66
2022/05/03 00:24:28;;;;;;;3.67;2.30;;;;;;;18.26;37.54;100966.06;5131880;27;20409;-66
2022/05/03 00:26:56;;;;;;;4.30;2.60;;;;;;;18.21;37.62;100966.72;5126581;28;20410;-66
2022/05/03 00:29:24;;;;;;;4.40;2.60;;;;;;;18.27;37.70;100970.38;5125749;28;20495;-66
2022/05/03 00:31:52;;;;;;;7.70;3.50;;;;;;;18.04;38.04;100966.38;5126263;28;20503;-66
2022/05/03 00:34:20;;;;;;;6.82;3.20;;;;;;;18.06;37.97;100963.47;5125910;28;20415;-66
2022/05/03 00:36:47;;;;;;;6.20;2.88;;;;;;;18.11;37.78;100961.81;5125312;28;20415;-66
2022/05/03 00:39:14;;;;;;;6.03;2.70;;;;;;;18.10;37.71;100962.84;5124100;28;20417;-66
2022/05/03 00:46:26;;;;;;;5.78;2.85;;;;;;;17.90;38.34;100959.44;5052163;28;20410;-65
2022/05/03 00:49:19;;;;;;;4.28;2.30;;;;;;;17.74;38.54;100960.69;5042505;28;20417;-66
2022/05/03 00:51:52;;;;;;;5.68;2.50;;;;;;;17.69;38.89;100957.81;5040029;28;20421;-66
2022/05/03 00:54:29;;;;;;;4.68;2.40;;;;;;;17.49;39.12;100973.94;5045098;28;20972;-64
2022/05/03 00:57:15;;;;;;;3.72;2.33;;;;;;;17.16;40.02;100966.75;5041948;28;20410;-66
2022/05/03 01:00:01;;;;;;;4.50;2.42;;;;;;;17.02;40.46;100974.00;5040852;28;20826;-66
2022/05/03 01:02:42;;;;;;;2.55;2.00;;;;;;;16.89;40.95;100969.47;5040006;28;20419;-66
2022/05/03 01:05:10;;;;;;;4.55;2.30;;;;;;;17.03;40.91;100966.78;5042192;28;20472;-66
2022/05/03 01:07:44;;;;;;;3.65;2.30;;;;;;;16.71;41.44;100972.72;5042575;28;20511;-66
2022/05/03 01:10:19;;;;;;;6.10;2.33;;;;;;;16.77;41.56;100971.88;5040719;28;20417;-66
2022/05/03 01:12:55;;;;;;;5.28;2.13;;;;;;;16.77;41.37;100976.44;5046351;28;20449;-66
2022/05/03 01:15:26;;;;;;;4.35;2.13;;;;;;;16.85;41.40;100978.09;5045931;28;20418;-65
2022/05/03 01:18:44;;;;;;;4.60;2.33;;;;;;;16.71;41.65;100977.22;5072474;27;20449;-66
2022/05/03 01:21:19;;;;;;;5.47;2.30;;;;;;;16.71;41.92;100975.41;5064746;28;20447;-67
2022/05/03 01:23:58;;;;;;;5.13;2.50;;;;;;;16.48;42.38;100988.31;5066051;28;20412;-67
2022/05/03 01:27:10;;;;;;;4.10;2.60;;;;;;;16.30;43.07;100988.88;5060525;28;20463;-66
2022/05/03 01:29:38;;;;;;;2.95;2.05;;;;;;;16.38;42.93;100980.66;5028831;28;20459;-67
2022/05/03 01:32:07;;;;;;;5.68;2.50;;;;;;;16.42;42.82;100990.78;5064646;28;20427;-67
2022/05/03 01:34:35;;;;;;;4.03;2.47;;;;;;;16.24;43.25;100991.34;5065365;28;20452;-67
2022/05/03 01:37:15;;;;;;;4.87;2.60;;;;;;;16.30;43.02;100995.06;5063988;28;20427;-66
2022/05/03 01:39:59;;;;;;;3.90;2.40;;;;;;;16.14;43.42;100993.56;5063539;28;20423;-66
2022/05/03 01:42:37;;;;;;;3.47;2.30;;;;;;;16.13;43.99;100986.53;5065692;28;20467;-67
2022/05/03 01:45:08;;;;;;;3.50;2.22;;;;;;;16.14;43.98;100992.75;5064245;28;20432;-65
2022/05/03 01:47:46;;;;;;;4.78;2.38;;;;;;;16.02;43.92;100987.94;5065370;28;20499;-66
2022/05/03 01:50:18;;;;;;;5.20;2.20;;;;;;;16.23;43.59;100984.31;5065175;28;20504;-66
2022/05/03 01:53:13;;;;;;;4.60;2.35;;;;;;;16.30;43.71;100987.03;5063920;28;20416;-66
2022/05/03 01:56:19;;;;;;;5.20;2.40;;;;;;;16.21;43.79;100988.25;5064140;28;20420;-67
2022/05/03 01:59:05;;;;;;;4.47;2.65;;;;;;;16.09;44.04;100985.31;5063843;28;20871;-66
2022/05/03 02:01:53;;;;;;;3.65;2.25;;;;;;;16.39;43.66;100980.47;5064175;28;20937;-66
2022/05/03 02:05:53;;;;;;;4.00;2.28;;;;;;;15.94;44.62;100987.31;5069616;28;21010;-66
2022/05/03 02:08:22;;;;;;;5.90;2.47;;;;;;;16.16;44.18;100980.00;5063059;28;20953;-66
2022/05/03 02:11:27;;;;;;;5.13;2.60;;;;;;;16.22;43.95;100985.38;5064582;28;20427;-65
2022/05/03 02:16:28;;;;;;;4.25;2.50;;;;;;;16.19;44.17;100992.97;5072556;28;20940;-67
2022/05/03 02:19:08;;;;;;;5.03;2.33;;;;;;;16.15;44.23;100981.84;5066058;28;20481;-67
2022/05/03 02:21:49;;;;;;;4.40;2.67;;;;;;;16.33;43.93;100988.47;5064875;28;20510;-67
2022/05/03 02:24:28;;;;;;;3.77;2.77;;;;;;;16.19;43.89;100987.63;5063290;28;20455;-68
2022/05/03 02:27:05;;;;;;;3.17;2.63;;;;;;;16.05;44.23;100992.91;5064890;28;20420;-67
2022/05/03 02:29:41;;;;;;;5.60;2.85;;;;;;;16.24;43.81;100982.47;5065182;28;20520;-66
2022/05/03 02:32:13;;;;;;;5.03;3.13;;;;;;;15.94;44.66;100992.66;5060192;28;20564;-67
2022/05/03 02:34:48;;;;;;;4.85;2.67;;;;;;;16.02;44.52;100979.91;5065922;28;21000;-67
2022/05/03 02:37:18;;;;;;;5.32;2.80;;;;;;;16.20;44.24;100983.91;5063491;28;20419;-66
2022/05/03 02:39:56;;;;;;;5.32;2.70;;;;;;;15.65;45.58;100979.31;5064395;28;20423;-67
2022/05/03 02:42:24;;;;;;;5.68;2.85;;;;;;;15.69;45.33;100985.09;5063493;28;20416;-67
2022/05/03 02:44:54;;;;;;;5.85;3.00;;;;;;;15.61;45.73;100979.88;5065302;28;20951;-67
2022/05/03 02:47:31;;;;;;;5.80;2.80;;;;;;;15.66;45.51;100977.44;5061511;28;20428;-67
2022/05/03 02:50:10;;;;;;;6.18;2.90;;;;;;;15.53;45.32;100980.88;5063885;28;20499;-68
2022/05/03 02:52:58;;;;;;;5.72;3.15;;;;;;;15.48;45.69;100986.81;5064829;28;20581;-66
2022/05/03 02:55:36;;;;;;;5.47;3.08;;;;;;;15.30;46.13;100994.47;5062608;28;20511;-66
2022/05/03 02:58:14;;;;;;;5.05;3.20;;;;;;;15.34;46.37;100985.09;5062973;28;20929;-66
2022/05/03 03:04:02;;;;;;;5.57;2.83;;;;;;;15.44;45.98;101006.09;5064277;28;20794;-66
2022/05/03 03:06:33;;;;;;;7.23;3.20;;;;;;;15.33;46.49;101015.47;5063528;28;20424;-66
2022/05/03 03:09:45;;;;;;;5.05;3.00;;;;;;;15.33;46.13;101010.13;5082550;28;20467;-66
2022/05/03 03:12:23;;;;;;;4.73;3.10;;;;;;;15.45;46.00;101003.25;5078609;28;20487;-67
2022/05/03 03:15:00;;;;;;;4.03;3.13;;;;;;;15.22;46.46;100999.97;5078773;28;20542;-66
2022/05/03 03:17:30;;;;;;;9.60;3.38;;;;;;;15.26;46.45;101002.06;5075650;28;20520;-66
2022/05/03 03:20:09;;;;;;;5.95;3.15;;;;;;;15.23;46.71;101002.47;5082682;28;20855;-66
2022/05/03 03:22:40;;;;;;;4.70;3.20;;;;;;;15.47;46.34;101016.41;5079306;28;20430;-66
2022/05/03 03:25:10;;;;;;;6.00;3.22;;;;;;;15.27;46.70;101013.59;5082957;28;20492;-66
2022/05/03 03:27:39;;;;;;;5.03;3.40;;;;;;;15.38;46.28;101023.72;5080667;28;20430;-65
2022/05/03 03:30:08;;;;;;;5.32;3.28;;;;;;;15.27;46.59;101019.75;5083578;28;20410;-67
2022/05/03 03:32:37;;;;;;;5.50;3.40;;;;;;;15.18;47.07;101028.91;5083473;28;20939;-66
2022/05/03 03:35:06;;;;;;;6.10;3.60;;;;;;;15.36;47.21;101030.28;5082020;28;20859;-67
2022/05/03 03:37:34;;;;;;;5.53;3.42;;;;;;;15.18;46.95;101022.72;5083806;28;20483;-66
2022/05/03 03:40:02;;;;;;;7.43;3.63;;;;;;;15.26;46.82;101026.09;5085817;28;20925;-65
2022/05/03 03:42:31;;;;;;;8.35;3.72;;;;;;;15.30;47.12;101023.88;5080832;28;20418;-66
2022/05/03 03:45:01;;;;;;;6.75;3.53;;;;;;;15.25;47.03;101035.16;5082859;28;20429;-66
2022/05/03 03:47:30;;;;;;;6.97;3.45;;;;;;;15.22;47.15;101037.38;5079012;28;20418;-66
2022/05/03 03:49:59;;;;;;;6.53;3.40;;;;;;;15.27;47.12;101035.78;5085687;28;21082;-66
2022/05/03 03:52:27;;;;;;;5.75;3.45;;;;;;;15.04;47.57;101033.31;5079813;28;20919;-66
2022/05/03 03:54:54;;;;;;;6.10;3.75;;;;;;;15.32;47.02;101032.50;5083780;28;20427;-66
2022/05/03 03:57:23;;;;;;;5.05;3.55;;;;;;;15.46;46.94;101044.94;5084712;28;20472;-65
2022/05/03 03:59:52;;;;;;;5.38;3.40;;;;;;;15.24;47.43;101043.34;5081359;28;20911;-66
2022/05/03 04:02:21;;;;;;;6.25;3.40;;;;;;;15.42;47.20;101041.03;5065656;28;20460;-66
2022/05/03 04:04:50;;;;;;;6.88;3.70;;;;;;;15.58;46.65;101047.09;5071716;28;20432;-67
2022/05/03 04:07:18;;;;;;;7.25;3.75;;;;;;;15.27;47.26;101059.00;5072068;28;20432;-67
2022/05/03 04:09:45;;;;;;;6.60;4.10;;;;;;;15.37;47.40;101054.13;5093869;28;20858;-67
2022/05/03 04:12:12;;;;;;;7.70;3.70;;;;;;;15.33;47.58;101063.56;5103807;28;20470;-68
2022/05/03 04:14:41;;;;;;;6.53;3.22;;;;;;;15.33;47.28;101062.72;5102061;28;20477;-67
2022/05/03 04:17:09;;;;;;;5.72;3.55;;;;;;;15.01;48.04;101063.06;5097707;28;20858;-68
2022/05/03 04:19:36;;;;;;;4.00;3.40;;;;;;;14.74;48.87;101061.13;5083334;28;20450;-67
2022/05/03 04:22:13;;;;;;;6.88;3.58;;;;;;;14.94;48.61;101066.69;5074231;28;20512;-67
2022/05/03 04:24:41;;;;;;;6.50;3.70;;;;;;;14.79;48.51;101062.22;5077458;28;20494;-68
2022/05/03 04:27:08;;;;;;;5.57;3.42;;;;;;;14.97;48.13;101067.13;5087103;28;20419;-68
2022/05/03 04:29:35;;;;;;;5.73;3.30;;;;;;;14.99;48.47;101069.59;5081156;28;20438;-68
2022/05/03 04:32:02;;;;;;;4.72;3.25;;;;;;;15.33;47.42;101068.06;5079148;28;20499;-68
2022/05/03 04:34:31;;;;;;;6.28;3.60;;;;;;;15.24;47.56;101073.53;5075617;28;20427;-67
2022/05/03 04:36:59;;;;;;;8.37;3.30;;;;;;;15.40;47.26;101071.63;5086534;28;20420;-68
2022/05/03 04:39:26;;;;;;;6.28;3.25;;;;;;;15.08;47.75;101071.94;5078095;28;20480;-66
2022/05/03 04:41:53;;;;;;;7.40;3.45;;;;;;;14.98;48.12;101075.94;5080547;28;20463;-67
2022/05/03 04:44:20;;;;;;;5.77;3.47;;;;;;;15.18;47.75;101070.81;5078300;28;20942;-67
2022/05/03 04:46:47;;;;;;;4.40;3.28;;;;;;;15.20;47.76;101082.97;5080742;28;20474;-67
2022/05/03 04:49:14;;;;;;;4.78;3.05;;;;;;;15.22;47.72;101086.25;5083777;28;20942;-64
2022/05/03 04:51:43;;;;;;;5.55;3.30;;;;;;;14.87;48.39;101079.94;5070144;28;20422;-65
2022/05/03 04:54:10;;;;;;;8.00;3.57;;;;;;;15.16;47.94;101081.69;5076722;28;20416;-63
2022/05/03 04:56:37;;;;;;;9.82;3.75;;;;;;;15.28;47.75;101082.00;5082754;28;20438;-64
2022/05/03 04:59:04;;;;;;;5.93;3.47;;;;;;;15.41;47.45;101083.94;5079551;28;20502;-65
2022/05/03 05:01:32;;;;;;;9.93;3.95;;;;;;;15.39;47.29;101089.47;5075443;28;20794;-64
2022/05/03 05:03:59;;;;;;;4.50;2.90;;;;;;;15.01;48.19;101088.94;5069273;28;20437;-63
2022/05/03 05:06:26;;;;;;;5.60;3.38;;;;;;;14.79;48.56;101088.91;5070967;28;20880;-65
2022/05/03 05:08:54;;;;;;;5.75;3.40;;;;;;;14.66;48.91;101091.44;5071458;28;20796;-65
2022/05/03 05:11:21;;;;;;;4.07;3.45;;;;;;;14.83;48.54;101100.84;5070281;28;20411;-64
2022/05/03 05:13:48;;;;;;;6.05;3.13;;;;;;;15.02;48.31;101098.59;5069484;28;20430;-62
2022/05/03 05:16:15;;;;;;;4.57;3.17;;;;;;;14.79;48.46;101104.09;5072506;28;21183;-65
2022/05/03 05:18:43;;;;;;;6.20;3.73;;;;;;;14.73;49.03;101095.00;5074844;28;20939;-63
2022/05/03 05:21:10;;;;;;;6.18;3.70;;;;;;;15.12;48.33;101104.44;5076384;28;20451;-63
2022/05/03 05:23:37;;;;;;;8.05;3.88;;;;;;;15.11;48.09;101110.81;5078588;28;20518;-65
2022/05/03 05:26:05;;;;;;;6.35;3.63;;;;;;;15.24;47.79;101108.25;5068478;28;20508;-68
2022/05/03 05:28:33;;;;;;;9.18;3.55;;;;;;;15.07;48.18;101112.19;5071531;28;20938;-65
2022/05/03 05:31:00;;;;;;;5.30;3.50;;;;;;;15.19;47.44;101116.00;5072532;28;20518;-64
2022/05/03 05:33:27;;;;;;;10.77;3.30;;;;;;;15.41;47.25;101114.19;5075101;28;20419;-66
2022/05/03 05:35:54;;;;;;;13.70;3.85;;;;;;;15.67;47.17;101115.41;5077020;28;20914;-64
2022/05/03 05:38:21;;;;;;;11.20;3.67;;;;;;;15.71;47.20;101115.84;5068054;28;20425;-64
2022/05/03 05:40:52;;;;;;;7.00;3.50;;;;;;;15.87;46.67;101107.56;5072434;28;20424;-65
2022/05/03 05:43:20;;;;;;;7.85;3.75;;;;;;;15.80;46.53;101117.38;5075184;28;20421;-62
2022/05/03 05:45:48;;;;;;;8.97;3.50;;;;;;;16.03;46.12;101119.81;5085357;28;20416;-62
2022/05/03 05:48:15;;;;;;;4.47;3.00;;;;;;;16.12;45.86;101125.84;5082641;28;20425;-62
2022/05/03 05:50:43;;;;;;;7.22;2.80;;;;;;;16.04;45.90;101127.66;5075655;28;20433;-64
2022/05/03 05:55:54;;;;;;;7.95;3.40;;;;;;;15.80;46.44;101131.56;5072178;28;20426;-64
2022/05/03 05:58:23;;;;;;;7.55;3.40;;;;;;;16.02;45.98;101126.16;5075317;28;20457;-63
2022/05/03 06:00:50;;;;;;;6.20;3.20;;;;;;;15.97;46.10;101136.63;5082537;28;20451;-62
2022/05/03 06:03:19;;;;;;;9.18;3.17;;;;;;;15.86;46.40;101133.50;5080590;28;20502;-63
2022/05/03 06:05:46;;;;;;;5.30;3.03;;;;;;;15.74;46.82;101136.84;5079771;28;20513;-66
2022/05/03 06:08:13;;;;;;;6.90;3.47;;;;;;;15.76;46.82;101142.88;5081855;28;20869;-65
2022/05/03 06:10:40;;;;;;;6.38;3.20;;;;;;;15.58;46.93;101149.47;5081265;28;20429;-63
2022/05/03 06:13:08;;;;;;;6.25;3.55;;;;;;;15.67;46.72;101142.97;5085086;28;20478;-62
2022/05/03 06:15:36;;;;;;;6.38;3.10;;;;;;;15.79;46.36;101153.16;5085574;28;20428;-64
2022/05/03 06:18:04;;;;;;;7.05;3.67;;;;;;;15.69;46.63;101153.47;5085603;28;20941;-62
2022/05/03 06:20:31;;;;;;;4.97;3.30;;;;;;;15.96;45.69;101162.53;5086286;28;20450;-63
2022/05/03 06:22:58;;;;;;;5.45;3.17;;;;;;;16.21;45.41;101151.41;5085715;28;20406;-63
2022/05/03 06:25:25;;;;;;;5.13;2.80;;;;;;;16.38;45.24;101155.41;5078125;28;20462;-63
2022/05/03 06:27:52;;;;;;;4.60;3.00;;;;;;;16.34;45.39;101158.69;5080964;28;20470;-63
2022/05/03 06:30:19;;;;;;;6.25;3.08;;;;;;;16.57;44.69;101163.75;5083271;28;20515;-64
2022/05/03 06:32:48;;;;;;;5.30;3.20;;;;;;;16.71;44.01;101160.09;5078983;28;20436;-64
2022/05/03 06:35:15;;;;;;;4.95;2.60;;;;;;;16.93;43.63;101160.81;5085559;28;20413;-64
2022/05/03 06:37:43;;;;;;;4.97;3.20;;;;;;;16.94;43.52;101167.84;5085697;28;20405;-62
2022/05/03 06:40:12;;;;;;;4.97;2.97;;;;;;;16.95;43.12;101155.28;5085245;28;20831;-64
2022/05/03 06:42:40;;;;;;;4.30;2.83;;;;;;;16.62;43.94;101169.34;5084218;28;20413;-64
2022/05/03 06:45:09;;;;;;;4.68;2.90;;;;;;;16.73;44.03;101158.06;5085668;28;20506;-64
2022/05/03 06:47:36;;;;;;;4.63;2.88;;;;;;;16.89;43.09;101166.78;5084131;28;20460;-64
2022/05/03 06:50:06;;;;;;;4.97;2.53;;;;;;;16.84;43.25;101171.94;5081062;28;20437;-63
2022/05/03 06:52:33;;;;;;;4.60;2.73;;;;;;;17.07;43.50;101164.38;5085257;28;20410;-65
2022/05/03 06:55:00;;;;;;;4.57;2.85;;;;;;;17.16;42.98;101165.84;5081964;28;20417;-62
2022/05/03 06:57:28;;;;;;;5.00;2.90;;;;;;;17.39;42.40;101175.34;5086348;28;20478;-65
2022/05/03 06:59:56;;;;;;;6.97;3.30;;;;;;;17.56;42.27;101170.44;5076429;28;20431;-65
2022/05/03 07:02:23;;;;;;;5.05;3.00;;;;;;;17.60;41.92;101169.00;5082126;28;20421;-65
2022/05/03 07:04:50;;;;;;;5.30;3.22;;;;;;;17.98;41.64;101181.81;5082869;28;20448;-65
2022/05/03 07:07:19;;;;;;;6.13;2.95;;;;;;;17.64;42.19;101193.53;5081903;28;20838;-64
2022/05/03 07:09:46;;;;;;;4.85;2.90;;;;;;;17.98;41.19;101170.25;5083454;28;20433;-63
2022/05/03 07:12:13;;;;;;;5.43;2.90;;;;;;;17.63;41.63;101176.63;5085589;28;20409;-66
2022/05/03 07:14:40;;;;;;;4.33;2.87;;;;;;;17.43;42.13;101175.78;5085494;28;20445;-63
2022/05/03 07:17:07;;;;;;;5.80;3.10;;;;;;;17.73;41.64;101182.38;5085420;28;20425;-65
2022/05/03 07:25:04;;;;;;;5.80;2.92;;;;;;;18.33;41.40;101163.59;5084325;28;20432;-64
2022/05/03 07:27:31;;;;;;;5.87;2.70;;;;;;;18.85;39.98;101170.88;5075192;28;20899;-65
2022/05/03 07:29:58;;;;;;;5.33;3.20;;;;;;;18.97;39.16;101165.66;5088067;28;20780;-64
2022/05/03 07:32:25;;;;;;;4.67;2.90;;;;;;;18.59;39.79;101169.09;5087360;28;20423;-64
2022/05/03 07:34:53;;;;;;;5.10;2.90;;;;;;;18.88;39.49;101168.56;5069135;28;20427;-65
2022/05/03 07:37:21;;;;;;;6.00;2.85;;;;;;;19.19;39.07;101163.47;5084162;28;20925;-63
2022/05/03 07:39:48;;;;;;;5.03;2.95;;;;;;;18.78;39.82;101183.47;5084290;28;20421;-64
2022/05/03 07:42:15;;;;;;;4.70;2.85;;;;;;;18.75;39.11;101168.63;5082592;28;20528;-63
2022/05/03 07:44:42;;;;;;;4.25;3.13;;;;;;;19.17;38.86;101171.75;5085008;28;20413;-67
2022/05/03 07:47:09;;;;;;;6.50;2.97;;;;;;;19.29;38.27;101167.31;5077138;28;21174;-64
2022/05/03 07:49:36;;;;;;;4.00;2.97;;;;;;;19.25;38.31;101174.19;5083130;28;20429;-65
2022/05/03 07:52:05;;;;;;;3.53;2.95;;;;;;;18.97;38.89;101177.22;5073524;28;20425;-65
2022/05/03 07:54:35;;;;;;;5.40;2.92;;;;;;;18.97;39.00;101177.22;5085763;28;20546;-65
2022/05/03 07:57:02;;;;;;;3.55;2.70;;;;;;;18.70;39.24;101184.53;5087286;28;20926;-65
2022/05/03 07:59:29;;;;;;;4.47;2.80;;;;;;;18.44;39.83;101174.69;5074487;28;21195;-64
2022/05/03 08:01:56;;;;;;;4.82;2.92;;;;;;;18.77;39.12;101188.03;5081727;28;20460;-64
2022/05/03 08:04:23;;;;;;;3.75;2.70;;;;;;;18.57;39.03;101198.03;5085730;28;20482;-63
2022/05/03 08:06:51;;;;;;;6.63;3.10;;;;;;;18.14;39.41;101180.56;5089235;28;20448;-65
2022/05/03 08:09:18;;;;;;;5.07;3.00;;;;;;;18.28;40.16;101173.31;5088198;28;20521;-64
2022/05/03 08:11:46;;;;;;;4.80;3.00;;;;;;;18.32;39.67;101187.97;5089170;28;20462;-64
2022/05/03 08:14:13;;;;;;;4.30;2.90;;;;;;;18.51;39.37;101187.09;5088114;28;20589;-65
2022/05/03 08:16:40;;;;;;;5.63;2.90;;;;;;;18.45;39.33;101181.72;5089028;28;20425;-64
2022/05/03 08:19:08;;;;;;;5.07;3.00;;;;;;;18.62;38.54;101180.25;5088225;28;20417;-63
2022/05/03 08:21:35;;;;;;;3.70;2.67;;;;;;;18.50;39.73;101206.91;5091511;28;20437;-63
2022/05/03 08:24:03;;;;;;;4.72;2.80;;;;;;;18.35;39.19;101187.53;5088319;28;20468;-65
2022/05/03 08:26:30;;;;;;;5.65;2.72;;;;;;;18.46;39.33;101186.06;5088011;28;21017;-63
2022/05/03 08:28:59;;;;;;;3.78;2.80;;;;;;;18.68;38.99;101182.06;5090206;28;20413;-64
2022/05/03 08:31:26;;;;;;;4.28;2.83;;;;;;;18.32;39.17;101198.69;5087481;28;20405;-63
2022/05/03 08:33:53;;;;;;;5.18;2.75;;;;;;;18.73;39.18;101184.13;5088248;28;20413;-64
2022/05/03 08:36:21;;;;;;;5.80;2.72;;;;;;;18.97;38.93;101189.84;5089009;28;20444;-65
2022/05/03 08:44:18;;;;;;;4.85;2.70;;;;;;;18.83;38.42;101197.13;5088178;28;20417;-64
2022/05/03 08:46:47;;;;;;;8.27;2.80;;;;;;;19.17;38.04;101203.97;5086249;28;21133;-64
2022/05/03 08:49:17;;;;;;;4.57;2.78;;;;;;;19.36;38.01;101191.47;5087776;28;20417;-62
2022/05/03 08:51:45;;;;;;;5.88;2.60;;;;;;;19.27;37.54;101195.47;5087373;28;20416;-62
2022/05/03 08:54:12;;;;;;;6.00;2.78;;;;;;;19.43;37.43;101203.03;5087974;28;20466;-63
2022/05/03 08:56:40;;;;;;;4.97;2.63;;;;;;;19.46;36.90;101196.38;5087162;28;20486;-63
2022/05/03 08:59:08;;;;;;;3.70;2.53;;;;;;;19.51;37.31;101195.72;5087662;28;20963;-63
2022/05/03 09:01:37;;;;;;;5.05;2.60;;;;;;;19.53;37.13;101193.66;5087524;28;20491;-64
2022/05/03 09:04:04;;;;;;;3.28;2.45;;;;;;;19.40;36.78;101194.56;5086697;28;20413;-64
2022/05/03 09:06:45;;;;;;;3.97;2.20;;;;;;;19.49;35.92;101195.94;5091058;28;20438;-63
2022/05/03 09:09:13;;;;;;;4.05;2.28;;;;;;;19.80;34.87;101195.13;5086365;28;20421;-62
2022/05/03 09:11:45;;;;;;;2.93;2.00;;;;;;;19.76;35.41;101187.72;5079910;28;20434;-63
2022/05/03 09:14:13;;;;;;;2.72;1.80;;;;;;;19.76;34.81;101191.22;5084751;28;20449;-63
2022/05/03 09:16:51;;;;;;;5.03;2.30;;;;;;;19.47;34.90;101188.09;5083313;28;20421;-62
2022/05/03 09:19:25;;;;;;;4.07;2.35;;;;;;;19.63;34.78;101188.63;5084181;28;20420;-62
2022/05/03 09:24:54;;;;;;;4.30;2.30;;;;;;;19.66;34.94;101178.25;5086146;28;20408;-63
2022/05/03 09:27:23;;;;;;;4.05;2.10;;;;;;;20.05;34.50;101175.44;5088777;28;20424;-63
2022/05/03 09:30:04;;;;;;;3.93;2.27;;;;;;;20.46;33.90;101174.00;5092709;28;20891;-62
2022/05/03 09:32:39;;;;;;;4.70;2.40;;;;;;;20.58;33.94;101179.44;5083666;28;20849;-63
2022/05/03 09:35:07;;;;;;;4.00;2.00;;;;;;;20.62;33.71;101169.91;5085722;28;20489;-62
2022/05/03 09:37:41;;;;;;;2.70;2.20;;;;;;;20.70;34.15;101166.09;5086564;28;20486;-64
2022/05/03 09:40:12;;;;;;;4.80;2.30;;;;;;;20.25;34.52;101170.69;5086150;28;20445;-63
2022/05/03 09:42:40;;;;;;;3.20;1.98;;;;;;;20.68;33.24;101162.78;5075890;28;20802;-64
2022/05/03 09:45:09;;;;;;;6.47;2.53;;;;;;;20.81;33.44;101154.53;5086045;28;21011;-64
2022/05/03 09:47:51;;;;;;;4.15;2.60;;;;;;;20.67;34.40;101169.22;5086876;28;20516;-62
2022/05/03 09:50:29;;;;;;;4.00;2.20;;;;;;;20.41;33.73;101173.84;5086619;28;20464;-63
2022/05/03 09:52:57;;;;;;;3.97;2.10;;;;;;;20.07;34.22;101164.47;5086612;28;20967;-61
2022/05/03 09:55:32;;;;;;;4.18;2.40;;;;;;;20.00;34.28;101151.88;5086179;28;20448;-62
2022/05/03 09:58:03;;;;;;;6.63;2.30;;;;;;;20.43;34.22;101161.78;5086034;28;20926;-62
2022/05/03 10:00:33;;;;;;;4.43;2.20;;;;;;;20.81;33.35;101157.22;5086896;28;20440;-63
2022/05/03 10:03:03;;;;;;;3.38;2.17;;;;;;;21.08;32.73;101143.41;5086432;28;20421;-63
2022/05/03 10:05:30;;;;;;;3.38;2.10;;;;;;;21.10;32.65;101158.28;5086643;28;20417;-64
2022/05/03 10:07:58;;;;;;;5.03;2.43;;;;;;;20.70;32.96;101147.22;5077994;28;20520;-63
2022/05/03 10:10:27;;;;;;;4.78;2.30;;;;;;;20.95;32.98;101139.00;5066396;28;20492;-64
2022/05/03 10:12:55;;;;;;;3.50;2.13;;;;;;;20.97;32.85;101136.91;5065379;28;20474;-64
2022/05/03 10:21:03;;;;;;;4.70;2.30;;;;;;;20.78;32.87;101134.28;5086518;28;20412;-63
2022/05/03 10:23:35;;;;;;;4.03;2.50;;;;;;;20.84;32.79;101135.22;5084667;28;20417;-64
2022/05/03 10:26:05;;;;;;;4.88;2.65;;;;;;;20.59;34.21;101132.63;5086014;28;20417;-62
2022/05/03 10:29:05;;;;;;;4.30;2.60;;;;;;;20.40;34.99;101138.03;5085492;28;20428;-62
2022/05/03 10:31:32;;;;;;;4.25;2.42;;;;;;;20.47;35.24;101137.09;5086111;28;20429;-62
2022/05/03 10:34:03;;;;;;;3.65;2.30;;;;;;;20.34;35.09;101138.91;5080764;28;20845;-63
2022/05/03 10:36:43;;;;;;;3.95;2.30;;;;;;;20.19;35.59;101136.59;5086604;28;20554;-63
2022/05/03 10:39:21;;;;;;;4.70;2.50;;;;;;;20.29;34.97;101124.47;5082735;28;20496;-64
2022/05/03 10:41:57;;;;;;;5.47;2.30;;;;;;;20.10;35.24;101126.34;5067808;28;20442;-64
2022/05/03 10:44:46;;;;;;;4.68;2.42;;;;;;;20.02;34.59;101130.13;5065336;28;20430;-64
2022/05/03 10:47:15;;;;;;;4.00;2.72;;;;;;;20.11;34.25;101123.41;5077364;28;20421;-63
2022/05/03 10:50:19;;;;;;;4.93;2.17;;;;;;;19.88;33.73;101124.09;5085293;28;20449;-63
2022/05/03 10:53:18;;;;;;;4.10;2.20;;;;;;;19.62;33.64;101131.28;5090260;28;20494;-62
2022/05/03 10:56:16;;;;;;;3.17;2.30;;;;;;;19.86;33.11;101118.06;5088132;28;20521;-62
2022/05/03 10:59:01;;;;;;;4.40;2.35;;;;;;;20.21;33.02;101120.22;5020462;28;20410;-63
2022/05/03 11:01:28;;;;;;;4.45;2.22;;;;;;;20.09;32.49;101125.50;5051316;28;20438;-62
2022/05/03 11:04:19;;;;;;;3.20;2.08;;;;;;;20.10;32.32;101118.28;5065543;28;20446;-63
2022/05/03 11:06:49;;;;;;;4.55;2.30;;;;;;;20.23;32.65;101118.94;5062825;28;20444;-63
2022/05/03 11:09:26;;;;;;;4.07;2.15;;;;;;;20.30;32.95;101126.94;5073601;28;20422;-62
2022/05/03 11:12:01;;;;;;;5.13;2.30;;;;;;;20.16;33.04;101117.38;5077437;28;20470;-63
2022/05/03 11:14:51;;;;;;;3.50;2.20;;;;;;;20.18;33.75;101123.34;5065725;28;20430;-63
2022/05/03 11:17:19;;;;;;;3.15;2.20;;;;;;;19.96;34.06;101136.41;5064539;28;20441;-62
2022/05/03 11:19:55;;;;;;;3.30;2.10;;;;;;;20.04;34.14;101123.50;5068459;28;20421;-63
2022/05/03 11:22:23;;;;;;;3.70;2.20;;;;;;;19.95;33.94;101127.53;5077702;28;20421;-63
2022/05/03 11:24:54;;;;;;;4.95;2.38;;;;;;;20.04;33.77;101126.19;5085977;28;20521;-62
2022/05/03 11:27:22;;;;;;;2.40;2.03;;;;;;;20.17;33.33;101116.34;5082972;28;20819;-62
2022/05/03 11:29:55;;;;;;;4.93;2.00;;;;;;;20.30;33.19;101112.66;5087610;28;20421;-62
2022/05/03 11:32:31;;;;;;;3.90;1.87;;;;;;;20.10;33.06;101129.03;5084965;28;20916;-64
2022/05/03 11:35:06;;;;;;;3.83;2.07;;;;;;;20.21;33.38;101122.91;5074965;28;20428;-63
2022/05/03 11:37:35;;;;;;;4.30;2.10;;;;;;;20.12;33.50;101121.56;5081104;28;20487;-64
2022/05/03 11:40:05;;;;;;;3.43;1.93;;;;;;;20.13;33.37;101113.28;5085313;28;20452;-65
2022/05/03 11:42:37;;;;;;;4.05;1.95;;;;;;;20.23;32.69;101102.78;5079352;28;20453;-63
2022/05/03 11:45:05;;;;;;;3.53;2.00;;;;;;;20.26;32.78;101101.53;5100513;28;20420;-64
2022/05/03 11:47:35;;;;;;;3.25;1.95;;;;;;;20.40;32.73;101102.16;5082034;28;20958;-62
2022/05/03 11:50:04;;;;;;;2.20;1.60;;;;;;;20.51;32.63;101105.97;5086774;28;20456;-64
2022/05/03 11:58:03;;;;;;;3.90;2.10;;;;;;;20.30;31.71;101096.50;5087540;28;20833;-64
2022/05/03 12:00:31;;;;;;;3.33;1.80;;;;;;;20.66;31.64;101098.38;5080517;28;20426;-65
2022/05/03 12:03:01;;;;;;;3.72;1.77;;;;;;;20.51;31.72;101100.59;5087267;28;20416;-64
2022/05/03 12:05:29;;;;;;;3.70;1.70;;;;;;;20.56;31.23;101093.50;5086820;28;20509;-63
2022/05/03 12:07:57;;;;;;;3.47;1.75;;;;;;;20.51;30.41;101085.28;5085978;28;20413;-64
2022/05/03 12:10:28;;;;;;;3.08;1.80;;;;;;;20.46;30.86;101095.91;5086203;28;20457;-62
2022/05/03 12:13:07;;;;;;;4.15;1.90;;;;;;;20.49;31.01;101094.63;5087262;28;20417;-63
2022/05/03 12:15:36;;;;;;;4.20;1.70;;;;;;;20.45;31.13;101099.63;5086019;28;20416;-63
2022/05/03 12:18:10;;;;;;;2.38;1.70;;;;;;;20.25;31.33;101086.41;5083942;28;20562;-63
2022/05/03 12:20:48;;;;;;;3.58;1.80;;;;;;;20.12;31.77;101091.97;5034127;28;20425;-64
2022/05/03 12:23:18;;;;;;;2.85;1.40;;;;;;;20.14;30.85;101082.59;5086411;28;20417;-64
2022/05/03 12:25:49;;;;;;;3.90;1.88;;;;;;;20.25;31.45;101084.53;5077888;28;20508;-63